createdAt,value
2023-05-19T00:00:48.557Z,89.73
2023-05-19T00:04:53.447Z,89.50
2023-05-19T00:08:59.129Z,91.98
2023-05-19T00:13:05.685Z,89.04
2023-05-19T00:17:11.254Z,88.76
2023-05-19T00:21:14.456Z,91.75
2023-05-19T00:25:24.550Z,92.66
2023-05-19T00:29:27.564Z,92.03
2023-05-19T00:33:35.537Z,94.20
2023-05-19T00:37:38.710Z,93.91
2023-05-19T00:41:42.265Z,93.11
2023-05-19T00:45:45.869Z,93.25
2023-05-19T00:49:50.383Z,94.55
2023-05-19T00:53:53.557Z,94.69
2023-05-19T00:57:59.684Z,93.23
2023-05-19T01:02:03.244Z,94.34
2023-05-19T01:06:08.341Z,94.52
2023-05-19T01:10:12.137Z,93.97
2023-05-19T01:14:15.539Z,92.31
2023-05-19T01:18:23.590Z,96.27
2023-05-19T01:22:44.125Z,95.77
2023-05-19T01:27:11.563Z,95.88
2023-05-19T01:31:17.154Z,95.98
2023-05-19T01:35:20.731Z,95.62
2023-05-19T01:39:24.301Z,95.84
2023-05-19T01:43:28.503Z,95.42
2023-05-19T01:47:33.481Z,97.26
2023-05-19T01:51:37.419Z,97.33
2023-05-19T01:55:46.155Z,98.08
2023-05-19T01:59:53.876Z,96.32
2023-05-19T02:04:18.791Z,98.07
2023-05-19T02:08:25.779Z,97.74
2023-05-19T02:12:31.638Z,97.33
2023-05-19T02:16:35.906Z,94.28
2023-05-19T02:20:40.904Z,97.29
2023-05-19T02:24:45.213Z,98.25
2023-05-19T02:28:48.320Z,99.23
2023-05-19T02:32:51.495Z,98.75
2023-05-19T02:36:56.697Z,98.70
2023-05-19T02:40:59.943Z,98.34
2023-05-19T02:45:03.098Z,98.01
2023-05-19T02:49:06.086Z,99.22
2023-05-19T02:53:10.672Z,98.02
2023-05-19T02:57:13.613Z,98.24
2023-05-19T03:01:16.685Z,96.83
2023-05-19T03:05:20.293Z,98.13
2023-05-19T03:09:24.780Z,95.16
2023-05-19T03:13:28.004Z,95.51
2023-05-19T03:17:33.949Z,96.96
2023-05-19T03:21:37.664Z,99.77
2023-05-19T03:25:42.570Z,98.23
2023-05-19T03:29:45.783Z,97.82
2023-05-19T03:33:49.425Z,100.00
2023-05-19T03:37:52.428Z,98.02
2023-05-19T03:41:59.991Z,98.24
2023-05-19T03:46:03.446Z,99.18
2023-05-19T03:50:07.790Z,99.76
2023-05-19T03:54:10.800Z,98.73
2023-05-19T03:58:17.846Z,99.56
2023-05-19T04:02:20.925Z,100.00
2023-05-19T04:06:24.238Z,100.00
2023-05-19T04:10:27.416Z,99.66
2023-05-19T04:14:32.064Z,99.17
2023-05-19T04:18:35.158Z,99.19
2023-05-19T04:22:38.167Z,98.71
2023-05-19T04:26:47.548Z,99.11
2023-05-19T04:30:52.067Z,99.38
2023-05-19T04:34:59.138Z,96.63
2023-05-19T04:39:07.233Z,98.93
2023-05-19T04:43:11.514Z,98.72
2023-05-19T04:47:16.000Z,97.79
2023-05-19T04:51:19.173Z,98.69
2023-05-19T04:55:22.168Z,99.54
2023-05-19T04:59:26.562Z,99.27
2023-05-19T05:03:31.167Z,99.08
2023-05-19T05:07:41.172Z,97.82
2023-05-19T05:11:44.882Z,97.87
2023-05-19T05:15:48.782Z,91.60
2023-05-19T05:19:53.909Z,79.04
2023-05-19T05:23:57.491Z,77.59
2023-05-19T05:28:05.224Z,67.41
2023-05-19T05:32:09.988Z,73.81
2023-05-19T05:36:15.139Z,68.42
2023-05-19T05:40:18.684Z,67.21
2023-05-19T05:44:21.970Z,59.45
2023-05-19T05:48:25.770Z,60.40
2023-05-19T05:52:32.447Z,60.39
2023-05-19T05:56:37.167Z,61.16
2023-05-19T06:00:40.153Z,55.23
2023-05-19T06:04:46.344Z,57.03
2023-05-19T06:09:00.143Z,55.99
2023-05-19T06:13:03.514Z,66.52
2023-05-19T06:17:06.496Z,67.20
2023-05-19T06:21:10.393Z,72.82
2023-05-19T06:25:15.287Z,74.64
2023-05-19T06:29:19.795Z,63.47
2023-05-19T06:33:23.151Z,66.63
2023-05-19T06:37:45.056Z,62.06
2023-05-19T06:41:50.196Z,71.63
2023-05-19T06:45:53.696Z,56.74
2023-05-19T06:49:59.650Z,59.26
2023-05-19T06:54:02.843Z,55.01
2023-05-19T06:58:07.631Z,60.43
2023-05-19T07:02:11.473Z,54.75
2023-05-19T07:06:14.990Z,59.94
2023-05-19T07:10:20.183Z,58.85
2023-05-19T07:14:27.308Z,52.53
2023-05-19T07:18:32.073Z,58.43
2023-05-19T07:22:44.059Z,57.82
2023-05-19T07:26:47.155Z,50.18
2023-05-19T07:31:21.460Z,58.83
2023-05-19T07:35:27.410Z,51.85
2023-05-19T07:39:32.717Z,54.11
2023-05-19T07:43:35.649Z,55.56
2023-05-19T07:47:38.636Z,54.67
2023-05-19T07:51:42.822Z,52.44
2023-05-19T07:55:45.516Z,54.49
2023-05-19T07:59:48.223Z,52.49
2023-05-19T08:03:51.040Z,51.72
2023-05-19T08:07:55.093Z,60.47
2023-05-19T08:11:57.890Z,55.13
2023-05-19T08:16:00.696Z,50.15
2023-05-19T08:20:05.277Z,55.15
2023-05-19T08:24:09.501Z,48.62
2023-05-19T08:28:12.172Z,52.34
2023-05-19T08:32:14.928Z,55.23
2023-05-19T08:36:17.699Z,53.88
2023-05-19T08:40:22.308Z,48.11
2023-05-19T08:44:25.054Z,54.49
2023-05-19T08:48:29.864Z,52.30
2023-05-19T08:52:36.777Z,48.49
2023-05-19T08:56:40.752Z,50.74
2023-05-19T09:00:43.793Z,52.08
2023-05-19T09:04:48.053Z,47.47
2023-05-19T09:08:50.799Z,51.96
2023-05-19T09:12:54.979Z,49.66
2023-05-19T09:16:57.691Z,54.13
2023-05-19T09:21:00.841Z,41.70
2023-05-19T09:25:03.487Z,48.06
2023-05-19T09:29:13.777Z,42.43
2023-05-19T09:33:18.513Z,47.85
2023-05-19T09:37:23.909Z,44.17
2023-05-19T09:41:26.565Z,48.79
2023-05-19T09:45:30.816Z,42.89
2023-05-19T09:49:33.941Z,45.06
2023-05-19T09:53:36.785Z,45.81
2023-05-19T09:57:40.191Z,44.73
2023-05-19T10:01:46.659Z,45.38
2023-05-19T10:05:50.926Z,51.45
2023-05-19T10:09:55.738Z,47.39
2023-05-19T10:13:59.260Z,52.45
2023-05-19T10:18:03.157Z,46.10
2023-05-19T10:22:06.224Z,43.29
2023-05-19T10:26:09.669Z,48.77
2023-05-19T10:30:16.741Z,42.13
2023-05-19T10:34:40.591Z,47.88
2023-05-19T10:38:49.219Z,47.71
2023-05-19T10:42:58.916Z,44.55
2023-05-19T10:47:02.242Z,45.22
2023-05-19T10:51:07.121Z,44.14
2023-05-19T10:55:15.636Z,44.48
2023-05-19T10:59:35.059Z,43.08
2023-05-19T11:03:48.585Z,42.08
2023-05-19T11:08:02.538Z,43.46
2023-05-19T11:12:05.619Z,44.70
2023-05-19T11:16:09.221Z,44.77
2023-05-19T11:20:23.157Z,46.45
2023-05-19T11:24:37.438Z,46.58
2023-05-19T11:28:40.833Z,44.59
2023-05-19T11:32:44.055Z,42.69
2023-05-19T11:36:46.974Z,42.34
2023-05-19T11:40:54.134Z,51.88
2023-05-19T11:44:57.286Z,43.13
2023-05-19T11:48:59.977Z,45.96
2023-05-19T11:53:02.534Z,42.10
2023-05-19T11:57:09.049Z,44.47
2023-05-19T12:01:11.969Z,42.57
2023-05-19T12:05:20.018Z,45.15
2023-05-19T12:09:23.931Z,44.77
2023-05-19T12:13:28.596Z,43.14
2023-05-19T12:17:33.622Z,43.64
2023-05-19T12:21:36.579Z,46.92
2023-05-19T12:25:39.331Z,43.60
2023-05-19T12:29:43.157Z,40.26
2023-05-19T12:33:47.321Z,46.68
2023-05-19T12:37:50.673Z,45.01
2023-05-19T12:41:53.462Z,41.39
2023-05-19T12:45:57.547Z,38.74
2023-05-19T12:50:03.399Z,43.15
2023-05-19T12:54:06.099Z,44.24
2023-05-19T12:58:08.906Z,42.34
2023-05-19T13:02:13.100Z,41.52
2023-05-19T13:06:15.982Z,40.75
2023-05-19T13:10:18.670Z,42.82
2023-05-19T13:14:21.435Z,40.37
2023-05-19T13:18:27.538Z,38.19
2023-05-19T13:22:30.271Z,41.13
2023-05-19T13:26:33.013Z,40.26
2023-05-19T13:30:36.967Z,41.34
2023-05-19T13:34:41.275Z,51.16
2023-05-19T13:38:44.201Z,46.14
2023-05-19T13:42:47.378Z,40.87
2023-05-19T13:46:52.242Z,42.96
2023-05-19T13:50:56.448Z,41.76
2023-05-19T13:54:59.150Z,42.54
2023-05-19T13:59:01.892Z,44.59
2023-05-19T14:03:04.918Z,45.14
2023-05-19T14:07:09.680Z,40.14
2023-05-19T14:11:18.626Z,45.79
2023-05-19T14:15:21.466Z,42.17
2023-05-19T14:19:30.290Z,46.74
2023-05-19T14:23:34.561Z,40.54
2023-05-19T14:27:37.246Z,44.20
2023-05-19T14:31:39.954Z,43.12
2023-05-19T14:35:42.624Z,50.20
2023-05-19T14:39:46.805Z,49.55
2023-05-19T14:43:57.771Z,48.73
2023-05-19T14:48:00.626Z,44.63
2023-05-19T14:52:03.218Z,49.28
2023-05-19T14:56:06.825Z,48.58
2023-05-19T15:00:12.790Z,44.90
2023-05-19T15:04:15.583Z,50.51
2023-05-19T15:08:18.155Z,45.96
2023-05-19T15:12:20.915Z,45.23
2023-05-19T15:16:24.763Z,47.21
2023-05-19T15:20:29.454Z,43.38
2023-05-19T15:24:32.284Z,45.51
2023-05-19T15:28:35.090Z,44.92
2023-05-19T15:32:39.264Z,48.19
2023-05-19T15:36:41.967Z,46.29
2023-05-19T15:40:44.616Z,49.58
2023-05-19T15:44:47.715Z,52.50
2023-05-19T15:48:51.795Z,46.71
2023-05-19T15:52:54.558Z,48.98
2023-05-19T15:56:57.215Z,50.76
2023-05-19T16:00:59.946Z,50.08
2023-05-19T16:05:04.089Z,44.35
2023-05-19T16:09:06.816Z,51.19
2023-05-19T16:13:09.588Z,48.37
2023-05-19T16:17:13.789Z,46.61
2023-05-19T16:21:17.878Z,48.04
2023-05-19T16:25:20.704Z,46.76
2023-05-19T16:29:23.509Z,49.33
2023-05-19T16:33:26.328Z,50.67
2023-05-19T16:37:32.877Z,53.98
2023-05-19T16:41:35.658Z,53.28
2023-05-19T16:45:39.475Z,55.40
2023-05-19T16:49:42.186Z,50.43
2023-05-19T16:53:46.196Z,57.91
2023-05-19T16:57:48.888Z,53.74
2023-05-19T17:01:51.630Z,55.67
2023-05-19T17:05:54.308Z,59.29
2023-05-19T17:09:58.287Z,59.42
2023-05-19T17:14:02.015Z,63.64
2023-05-19T17:18:05.711Z,63.81
2023-05-19T17:22:08.502Z,64.08
2023-05-19T17:26:12.511Z,52.86
2023-05-19T17:30:15.523Z,59.62
2023-05-19T17:34:18.262Z,62.63
2023-05-19T17:38:20.950Z,59.66
2023-05-19T17:42:25.118Z,53.88
2023-05-19T17:46:30.164Z,58.52
2023-05-19T17:50:33.137Z,64.28
2023-05-19T17:54:36.092Z,67.46
2023-05-19T17:58:41.310Z,63.45
2023-05-19T18:02:44.882Z,66.01
2023-05-19T18:06:48.264Z,69.80
2023-05-19T18:10:52.565Z,66.67
2023-05-19T18:14:56.630Z,70.53
2023-05-19T18:18:59.319Z,68.36
2023-05-19T18:23:02.684Z,68.42
2023-05-19T18:27:05.587Z,70.33
2023-05-19T18:31:15.570Z,72.03
2023-05-19T18:35:20.740Z,70.99
2023-05-19T18:39:23.411Z,72.29
2023-05-19T18:43:26.194Z,74.02
2023-05-19T18:47:30.427Z,70.72
2023-05-19T18:51:33.476Z,71.26
2023-05-19T18:55:38.397Z,75.89
2023-05-19T18:59:41.537Z,73.95
2023-05-19T19:03:46.774Z,74.26
2023-05-19T19:07:49.545Z,75.93
2023-05-19T19:11:52.402Z,75.44
2023-05-19T19:15:55.323Z,78.04
2023-05-19T19:19:59.395Z,77.57
2023-05-19T19:24:02.613Z,75.86
2023-05-19T19:28:05.364Z,72.78
2023-05-19T19:32:08.815Z,79.85
2023-05-19T19:36:12.948Z,74.39
2023-05-19T19:40:15.696Z,75.12
2023-05-19T19:44:18.541Z,76.50
2023-05-19T19:48:21.250Z,77.98
2023-05-19T19:52:25.745Z,79.97
2023-05-19T19:56:28.466Z,81.60
2023-05-19T20:00:31.243Z,79.62
2023-05-19T20:04:34.051Z,80.67
2023-05-19T20:08:38.165Z,83.04
2023-05-19T20:12:40.875Z,83.53
2023-05-19T20:16:43.640Z,78.71
2023-05-19T20:20:46.377Z,76.82
2023-05-19T20:24:50.404Z,81.03
2023-05-19T20:28:53.179Z,81.41
2023-05-19T20:32:55.873Z,82.85
2023-05-19T20:36:58.647Z,78.77
2023-05-19T20:41:03.885Z,78.76
2023-05-19T20:45:07.722Z,76.97
2023-05-19T20:49:10.387Z,78.66
2023-05-19T20:53:13.188Z,79.37
2023-05-19T20:57:17.246Z,78.92
2023-05-19T21:01:19.961Z,80.69
2023-05-19T21:05:23.048Z,81.13
2023-05-19T21:09:26.006Z,77.33
2023-05-19T21:13:30.007Z,74.84
2023-05-19T21:17:32.773Z,76.42
2023-05-19T21:21:36.249Z,73.69
2023-05-19T21:25:40.734Z,76.20
2023-05-19T21:29:44.857Z,71.57
2023-05-19T21:33:47.533Z,71.21
2023-05-19T21:37:50.311Z,68.32
2023-05-19T21:41:52.992Z,71.33
2023-05-19T21:45:57.090Z,72.29
2023-05-19T21:49:59.765Z,66.67
2023-05-19T21:54:02.896Z,67.69
2023-05-19T21:58:05.560Z,63.65
2023-05-19T22:02:09.997Z,61.71
2023-05-19T22:06:12.742Z,63.21
2023-05-19T22:10:15.427Z,65.17
2023-05-19T22:14:18.486Z,63.80
2023-05-19T22:18:22.513Z,64.89
2023-05-19T22:22:25.455Z,67.41
2023-05-19T22:26:28.122Z,63.97
2023-05-19T22:30:30.812Z,62.18
2023-05-19T22:34:35.006Z,65.73
2023-05-19T22:38:37.879Z,60.96
2023-05-19T22:42:40.629Z,64.28
2023-05-19T22:46:44.211Z,65.79
2023-05-19T22:50:48.405Z,67.15
2023-05-19T22:54:51.064Z,65.00
2023-05-19T22:58:54.069Z,60.92
2023-05-19T23:02:58.262Z,60.36
2023-05-19T23:07:02.442Z,63.94
2023-05-19T23:11:05.184Z,65.97
2023-05-19T23:15:09.535Z,63.73
2023-05-19T23:19:12.321Z,67.96
2023-05-19T23:23:17.175Z,58.40
2023-05-19T23:27:19.894Z,68.22
2023-05-19T23:31:22.725Z,63.00
2023-05-19T23:35:25.499Z,61.54
2023-05-19T23:39:29.485Z,60.54
2023-05-19T23:43:32.823Z,58.60
2023-05-19T23:47:35.424Z,61.91
2023-05-19T23:51:38.138Z,58.93
2023-05-19T23:55:42.198Z,61.29
2023-05-19T23:59:44.992Z,61.93
